createdAt,value
2023-04-18T00:01:07.878Z,66.64
2023-04-18T00:03:34.762Z,67.16
2023-04-18T00:06:02.171Z,66.76
2023-04-18T00:08:28.788Z,67.04
2023-04-18T00:10:55.184Z,66.47
2023-04-18T00:13:21.524Z,66.39
2023-04-18T00:15:47.999Z,66.76
2023-04-18T00:18:17.115Z,66.62
2023-04-18T00:20:43.602Z,67.40
2023-04-18T00:23:13.910Z,67.29
2023-04-18T00:25:41.019Z,68.22
2023-04-18T00:28:07.438Z,67.84
2023-04-18T00:30:33.815Z,68.08
2023-04-18T00:33:00.309Z,68.65
2023-04-18T00:35:26.802Z,68.58
2023-04-18T00:37:53.186Z,68.46
2023-04-18T00:40:19.636Z,69.04
2023-04-18T00:42:45.984Z,69.07
2023-04-18T00:45:12.354Z,69.26
2023-04-18T00:47:38.780Z,68.86
2023-04-18T00:50:05.957Z,68.81
2023-04-18T00:52:35.671Z,69.48
2023-04-18T00:55:07.690Z,69.51
2023-04-18T00:57:34.433Z,69.37
2023-04-18T01:00:02.176Z,69.95
2023-04-18T01:02:31.945Z,69.88
2023-04-18T01:04:58.582Z,70.40
2023-04-18T01:07:28.224Z,69.45
2023-04-18T01:09:54.556Z,70.22
2023-04-18T01:12:20.902Z,69.38
2023-04-18T01:14:47.293Z,69.44
2023-04-18T01:17:13.893Z,69.65
2023-04-18T01:19:40.584Z,69.10
2023-04-18T01:22:07.323Z,68.92
2023-04-18T01:24:33.726Z,68.86
2023-04-18T01:27:01.713Z,69.08
2023-04-18T01:29:28.147Z,68.29
2023-04-18T01:31:54.591Z,69.33
2023-04-18T01:34:21.136Z,68.96
2023-04-18T01:36:47.528Z,69.11
2023-04-18T01:39:14.552Z,69.02
2023-04-18T01:41:43.724Z,69.42
2023-04-18T01:44:10.420Z,68.79
2023-04-18T01:46:36.893Z,68.36
2023-04-18T01:49:03.448Z,68.54
2023-04-18T01:51:29.779Z,68.55
2023-04-18T01:53:56.119Z,68.20
2023-04-18T01:56:22.485Z,68.64
2023-04-18T01:58:48.855Z,69.38
2023-04-18T02:01:15.287Z,68.38
2023-04-18T02:03:41.784Z,69.51
2023-04-18T02:06:08.289Z,69.61
2023-04-18T02:11:02.634Z,69.36
2023-04-18T02:13:29.466Z,69.87
2023-04-18T02:15:55.858Z,69.51
2023-04-18T02:18:24.670Z,69.45
2023-04-18T02:20:51.811Z,69.36
2023-04-18T02:23:18.784Z,69.23
2023-04-18T02:25:45.165Z,69.48
2023-04-18T02:28:11.497Z,69.18
2023-04-18T02:30:37.882Z,70.01
2023-04-18T02:33:04.309Z,69.77
2023-04-18T02:35:31.653Z,70.17
2023-04-18T02:37:57.991Z,69.87
2023-04-18T02:40:24.375Z,69.58
2023-04-18T02:42:50.835Z,70.44
2023-04-18T02:45:17.295Z,70.30
2023-04-18T02:47:54.361Z,70.18
2023-04-18T02:50:22.421Z,69.88
2023-04-18T02:52:48.787Z,70.05
2023-04-18T02:55:15.152Z,70.65
2023-04-18T02:57:41.468Z,70.24
2023-04-18T03:00:08.720Z,70.37
2023-04-18T03:02:35.235Z,69.78
2023-04-18T03:05:01.766Z,70.23
2023-04-18T03:07:28.185Z,71.12
2023-04-18T03:09:54.562Z,71.16
2023-04-18T03:12:20.973Z,71.40
2023-04-18T03:14:47.329Z,71.58
2023-04-18T03:17:13.782Z,71.38
2023-04-18T03:19:40.152Z,71.61
2023-04-18T03:22:06.545Z,71.23
2023-04-18T03:24:32.857Z,71.13
2023-04-18T03:27:00.428Z,71.12
2023-04-18T03:29:26.804Z,71.39
2023-04-18T03:31:53.198Z,70.81
2023-04-18T03:34:19.610Z,69.76
2023-04-18T03:36:48.005Z,70.18
2023-04-18T03:39:14.752Z,71.10
2023-04-18T03:41:41.089Z,71.19
2023-04-18T03:44:07.511Z,71.58
2023-04-18T03:46:33.978Z,72.01
2023-04-18T03:49:00.726Z,71.06
2023-04-18T03:51:27.561Z,70.80
2023-04-18T03:53:53.923Z,70.86
2023-04-18T03:56:20.296Z,71.23
2023-04-18T03:58:46.614Z,70.44
2023-04-18T04:01:13.015Z,70.25
2023-04-18T04:03:39.674Z,71.66
2023-04-18T04:06:06.584Z,71.85
2023-04-18T04:08:32.916Z,71.38
2023-04-18T04:10:59.238Z,71.87
2023-04-18T04:13:25.630Z,70.55
2023-04-18T04:15:52.352Z,70.01
2023-04-18T04:18:18.696Z,69.50
2023-04-18T04:20:48.171Z,69.86
2023-04-18T04:23:14.492Z,70.33
2023-04-18T04:25:40.836Z,69.69
2023-04-18T04:28:08.042Z,69.44
2023-04-18T04:30:34.377Z,69.85
2023-04-18T04:33:01.668Z,70.78
2023-04-18T04:35:28.308Z,70.40
2023-04-18T04:37:54.645Z,70.21
2023-04-18T04:40:22.845Z,69.68
2023-04-18T04:42:53.857Z,70.53
2023-04-18T04:45:20.876Z,70.02
2023-04-18T04:47:47.532Z,69.23
2023-04-18T04:50:15.596Z,69.15
2023-04-18T04:52:42.491Z,67.87
2023-04-18T04:55:09.174Z,67.77
2023-04-18T04:57:35.782Z,67.96
2023-04-18T05:00:02.175Z,68.14
2023-04-18T05:02:28.666Z,68.31
2023-04-18T05:04:55.316Z,68.53
2023-04-18T05:07:21.820Z,68.71
2023-04-18T05:09:48.186Z,69.72
2023-04-18T05:12:14.524Z,68.84
2023-04-18T05:14:40.900Z,69.27
2023-04-18T05:17:07.711Z,69.79
2023-04-18T05:19:34.079Z,70.96
2023-04-18T05:22:00.543Z,71.00
2023-04-18T05:24:26.855Z,70.49
2023-04-18T05:26:53.565Z,70.48
2023-04-18T05:29:20.260Z,70.30
2023-04-18T05:31:46.615Z,70.46
2023-04-18T05:34:13.205Z,70.55
2023-04-18T05:36:40.151Z,70.79
2023-04-18T05:39:07.021Z,71.71
2023-04-18T05:41:33.880Z,71.05
2023-04-18T05:44:05.228Z,70.74
2023-04-18T05:46:32.849Z,70.86
2023-04-18T05:48:59.377Z,71.88
2023-04-18T05:51:26.657Z,71.87
2023-04-18T05:53:53.070Z,72.21
2023-04-18T05:56:19.460Z,72.27
2023-04-18T05:58:47.387Z,71.86
2023-04-18T06:01:18.425Z,72.37
2023-04-18T06:03:44.962Z,71.83
2023-04-18T06:06:11.621Z,72.50
2023-04-18T06:08:41.404Z,72.37
2023-04-18T06:11:08.914Z,72.22
2023-04-18T06:13:37.076Z,72.71
2023-04-18T06:16:03.855Z,71.90
2023-04-18T06:18:30.231Z,72.05
2023-04-18T06:20:56.602Z,71.75
2023-04-18T06:23:22.914Z,71.24
2023-04-18T06:25:49.327Z,72.15
2023-04-18T06:28:16.071Z,72.44
2023-04-18T06:30:42.448Z,72.07
2023-04-18T06:33:10.891Z,72.44
2023-04-18T06:35:37.555Z,72.12
2023-04-18T06:38:03.899Z,71.26
2023-04-18T06:40:30.278Z,70.45
2023-04-18T06:42:56.891Z,70.82
2023-04-18T06:45:23.256Z,70.44
2023-04-18T06:47:49.674Z,70.63
2023-04-18T06:50:17.024Z,70.96
2023-04-18T06:52:46.225Z,70.22
2023-04-18T06:55:13.903Z,70.46
2023-04-18T06:57:41.692Z,70.15
2023-04-18T07:00:09.002Z,69.57
2023-04-18T07:02:36.854Z,69.87
2023-04-18T07:05:03.504Z,69.30
2023-04-18T07:07:31.136Z,69.56
2023-04-18T07:09:57.474Z,69.75
2023-04-18T07:12:24.439Z,70.04
2023-04-18T07:14:51.616Z,70.63
2023-04-18T07:17:18.082Z,70.29
2023-04-18T07:19:44.515Z,69.62
2023-04-18T07:22:11.061Z,69.72
2023-04-18T07:24:39.175Z,70.42
2023-04-18T07:27:06.283Z,70.06
2023-04-18T07:29:32.942Z,69.87
2023-04-18T07:31:59.286Z,70.23
2023-04-18T07:34:29.673Z,70.25
2023-04-18T07:36:59.540Z,70.48
2023-04-18T07:39:25.900Z,71.29
2023-04-18T07:41:52.213Z,70.96
2023-04-18T07:44:18.576Z,70.45
2023-04-18T07:46:45.004Z,70.98
2023-04-18T07:49:11.699Z,69.87
2023-04-18T07:51:38.235Z,69.73
2023-04-18T07:54:04.598Z,71.29
2023-04-18T07:56:30.968Z,71.06
2023-04-18T07:58:57.304Z,70.73
2023-04-18T08:01:24.686Z,71.38
2023-04-18T08:03:53.146Z,71.31
2023-04-18T08:06:19.663Z,71.27
2023-04-18T08:08:46.265Z,71.24
2023-04-18T08:11:12.894Z,71.21
2023-04-18T08:13:39.241Z,71.12
2023-04-18T08:16:05.946Z,71.60
2023-04-18T08:18:33.345Z,71.22
2023-04-18T08:21:00.122Z,70.70
2023-04-18T08:23:26.477Z,70.15
2023-04-18T08:25:52.841Z,70.08
2023-04-18T08:28:19.172Z,70.35
2023-04-18T08:30:48.971Z,70.05
2023-04-18T08:33:16.082Z,69.62
2023-04-18T08:35:42.939Z,69.92
2023-04-18T08:38:09.505Z,70.51
2023-04-18T08:40:37.409Z,70.66
2023-04-18T08:43:09.206Z,70.60
2023-04-18T08:45:36.709Z,70.87
2023-04-18T08:48:03.662Z,70.70
2023-04-18T08:50:30.418Z,70.34
2023-04-18T08:52:58.370Z,70.35
2023-04-18T08:55:25.083Z,69.46
2023-04-18T08:57:54.980Z,69.63
2023-04-18T09:00:22.563Z,69.71
2023-04-18T09:02:49.464Z,69.75
2023-04-18T09:05:19.399Z,70.35
2023-04-18T09:07:49.615Z,70.80
2023-04-18T09:10:30.953Z,71.58
2023-04-18T09:12:58.545Z,71.54
2023-04-18T09:15:27.183Z,70.25
2023-04-18T09:17:58.182Z,70.31
2023-04-18T09:20:44.492Z,70.43
2023-04-18T09:23:16.161Z,70.41
2023-04-18T09:25:46.283Z,70.06
2023-04-18T09:28:26.775Z,69.55
2023-04-18T09:30:54.256Z,69.70
2023-04-18T09:33:34.241Z,68.93
2023-04-18T09:36:20.244Z,69.11
2023-04-18T09:38:47.932Z,70.34
2023-04-18T09:41:21.259Z,70.11
2023-04-18T09:43:48.048Z,69.75
2023-04-18T09:46:17.317Z,68.84
2023-04-18T09:48:43.662Z,69.28
2023-04-18T09:51:13.803Z,69.18
2023-04-18T09:53:44.830Z,68.67
2023-04-18T09:56:28.017Z,68.82
2023-04-18T09:59:07.055Z,68.83
2023-04-18T10:01:34.528Z,69.40
2023-04-18T10:04:06.542Z,69.24
2023-04-18T10:06:39.555Z,69.26
2023-04-18T10:09:09.172Z,68.57
2023-04-18T10:11:36.336Z,68.92
2023-04-18T10:14:07.666Z,68.35
2023-04-18T10:16:36.274Z,68.68
2023-04-18T10:19:22.820Z,68.40
2023-04-18T10:21:53.715Z,68.53
2023-04-18T10:24:46.869Z,68.90
2023-04-18T10:27:13.273Z,68.70
2023-04-18T10:29:50.501Z,68.70
2023-04-18T10:32:19.610Z,68.03
2023-04-18T10:34:47.140Z,67.97
2023-04-18T10:37:13.560Z,67.79
2023-04-18T10:40:02.851Z,66.88
2023-04-18T10:42:47.580Z,67.01
2023-04-18T10:45:24.484Z,66.29
2023-04-18T10:47:51.205Z,66.12
2023-04-18T10:50:17.627Z,66.02
2023-04-18T10:52:44.727Z,66.00
2023-04-18T10:55:31.034Z,66.17
2023-04-18T10:57:58.625Z,66.41
2023-04-18T11:00:25.916Z,66.28
2023-04-18T11:02:56.214Z,65.92
2023-04-18T11:05:25.168Z,66.34
2023-04-18T11:07:51.602Z,65.79
2023-04-18T11:10:23.603Z,65.47
2023-04-18T11:12:50.395Z,65.50
2023-04-18T11:15:22.045Z,64.71
2023-04-18T11:17:57.650Z,64.07
2023-04-18T11:20:24.650Z,64.13
2023-04-18T11:22:56.859Z,64.13
2023-04-18T11:25:34.339Z,63.83
2023-04-18T11:28:02.370Z,63.90
2023-04-18T11:30:36.688Z,63.16
2023-04-18T11:33:08.186Z,63.11
2023-04-18T11:35:42.528Z,62.99
2023-04-18T11:38:11.171Z,62.92
2023-04-18T11:40:37.848Z,62.65
2023-04-18T11:43:07.263Z,62.35
2023-04-18T11:45:33.681Z,62.18
2023-04-18T11:48:01.072Z,61.43
2023-04-18T11:50:27.539Z,61.69
2023-04-18T11:52:55.450Z,61.22
2023-04-18T11:55:25.108Z,60.89
2023-04-18T11:57:56.721Z,60.46
2023-04-18T12:00:38.375Z,59.35
2023-04-18T12:03:15.800Z,59.25
2023-04-18T12:05:42.733Z,58.47
2023-04-18T12:08:11.687Z,57.65
2023-04-18T12:10:44.731Z,57.44
2023-04-18T12:13:11.265Z,57.12
2023-04-18T12:15:40.428Z,57.04
2023-04-18T12:18:09.830Z,55.80
2023-04-18T12:20:45.742Z,54.00
2023-04-18T12:23:37.323Z,55.19
2023-04-18T12:26:14.414Z,54.94
2023-04-18T12:28:44.754Z,54.49
2023-04-18T12:31:11.361Z,55.36
2023-04-18T12:33:37.684Z,55.33
2023-04-18T12:36:05.397Z,54.19
2023-04-18T12:38:31.815Z,53.74
2023-04-18T12:40:58.176Z,53.92
2023-04-18T12:43:25.506Z,53.71
2023-04-18T12:45:52.056Z,54.19
2023-04-18T12:48:18.383Z,54.15
2023-04-18T12:50:44.684Z,53.76
2023-04-18T12:53:11.009Z,53.19
2023-04-18T12:55:38.042Z,53.36
2023-04-18T12:58:04.384Z,52.30
2023-04-18T13:00:32.295Z,52.06
2023-04-18T13:02:58.945Z,52.47
2023-04-18T13:05:29.915Z,52.58
2023-04-18T13:08:15.365Z,52.87
2023-04-18T13:10:44.349Z,51.94
2023-04-18T13:13:10.829Z,52.03
2023-04-18T13:15:37.330Z,51.76
2023-04-18T13:18:06.045Z,51.46
2023-04-18T13:20:33.320Z,51.26
2023-04-18T13:22:59.977Z,50.38
2023-04-18T13:25:26.523Z,50.35
2023-04-18T13:27:53.376Z,50.45
2023-04-18T13:30:19.924Z,49.93
2023-04-18T13:32:46.941Z,49.44
2023-04-18T13:35:13.648Z,49.07
2023-04-18T13:37:40.102Z,48.28
2023-04-18T13:40:07.078Z,48.07
2023-04-18T13:42:35.350Z,47.57
2023-04-18T13:45:01.781Z,47.45
2023-04-18T13:47:29.447Z,46.89
2023-04-18T13:49:57.515Z,47.03
2023-04-18T13:52:23.929Z,46.71
2023-04-18T13:54:50.444Z,45.72
2023-04-18T13:57:16.811Z,45.31
2023-04-18T13:59:43.232Z,44.75
2023-04-18T14:02:10.097Z,45.15
2023-04-18T14:04:36.979Z,45.69
2023-04-18T14:07:03.865Z,46.63
2023-04-18T14:09:30.215Z,46.66
2023-04-18T14:11:58.043Z,47.03
2023-04-18T14:14:24.465Z,47.94
2023-04-18T14:16:50.847Z,47.64
2023-04-18T14:19:17.817Z,48.31
2023-04-18T14:21:44.155Z,48.98
2023-04-18T14:24:10.528Z,49.16
2023-04-18T14:26:36.863Z,48.24
2023-04-18T14:29:04.987Z,48.48
2023-04-18T14:31:31.370Z,47.46
2023-04-18T14:33:57.720Z,47.46
2023-04-18T14:36:24.151Z,46.81
2023-04-18T14:38:50.489Z,46.62
2023-04-18T14:41:16.844Z,46.61
2023-04-18T14:43:43.244Z,46.21
2023-04-18T14:46:13.839Z,45.13
2023-04-18T14:48:40.267Z,44.44
2023-04-18T14:51:06.943Z,43.71
2023-04-18T14:53:33.475Z,43.71
2023-04-18T14:55:59.789Z,43.77
2023-04-18T14:58:26.117Z,44.96
2023-04-18T15:00:52.576Z,45.76
2023-04-18T15:03:19.021Z,46.05
2023-04-18T15:05:49.028Z,46.21
2023-04-18T15:08:16.129Z,45.11
2023-04-18T15:10:42.826Z,44.39
2023-04-18T15:13:09.662Z,43.68
2023-04-18T15:15:37.572Z,42.83
2023-04-18T15:18:04.482Z,42.63
2023-04-18T15:20:30.915Z,41.67
2023-04-18T15:22:57.395Z,41.00
2023-04-18T15:25:23.838Z,40.76
2023-04-18T15:27:50.192Z,40.68
2023-04-18T15:30:16.554Z,41.15
2023-04-18T15:32:43.977Z,41.15
2023-04-18T15:35:11.659Z,40.97
2023-04-18T15:37:38.107Z,41.95
2023-04-18T15:40:07.114Z,42.74
2023-04-18T15:42:33.546Z,42.76
2023-04-18T15:44:59.860Z,42.65
2023-04-18T15:47:27.113Z,42.53
2023-04-18T15:49:53.630Z,41.18
2023-04-18T15:52:20.037Z,39.61
2023-04-18T15:54:46.359Z,37.48
2023-04-18T15:57:12.709Z,38.03
2023-04-18T15:59:39.082Z,38.05
2023-04-18T16:02:06.734Z,39.21
2023-04-18T16:04:33.293Z,39.92
2023-04-18T16:07:00.205Z,40.47
2023-04-18T16:09:26.926Z,40.53
2023-04-18T16:11:53.384Z,40.16
2023-04-18T16:14:19.737Z,40.11
2023-04-18T16:16:46.144Z,40.53
2023-04-18T16:19:12.470Z,41.65
2023-04-18T16:21:38.771Z,41.85
2023-04-18T16:24:05.591Z,41.84
2023-04-18T16:26:31.934Z,41.92
2023-04-18T16:28:58.287Z,41.75
2023-04-18T16:31:24.646Z,41.97
2023-04-18T16:33:52.541Z,42.07
2023-04-18T16:36:19.074Z,41.50
2023-04-18T16:38:45.621Z,41.59
2023-04-18T16:41:11.952Z,42.00
2023-04-18T16:43:38.647Z,42.00
2023-04-18T16:46:05.517Z,42.79
2023-04-18T16:48:32.012Z,42.93
2023-04-18T16:50:58.418Z,43.26
2023-04-18T16:53:25.374Z,43.55
2023-04-18T16:55:52.993Z,42.77
2023-04-18T16:58:19.881Z,43.01
2023-04-18T17:00:46.254Z,43.29
2023-04-18T17:03:12.650Z,43.72
2023-04-18T17:05:39.323Z,44.47
2023-04-18T17:08:06.669Z,44.70
2023-04-18T17:10:33.825Z,45.88
2023-04-18T17:13:02.720Z,45.63
2023-04-18T17:15:29.270Z,45.13
2023-04-18T17:18:00.243Z,44.81
2023-04-18T17:20:27.928Z,45.52
2023-04-18T17:22:54.770Z,46.46
2023-04-18T17:25:21.450Z,46.35
2023-04-18T17:27:47.841Z,46.15
2023-04-18T17:30:14.275Z,46.53
2023-04-18T17:32:45.564Z,47.34
2023-04-18T17:35:15.139Z,47.98
2023-04-18T17:37:45.007Z,48.95
2023-04-18T17:40:11.906Z,49.71
2023-04-18T17:42:38.488Z,50.83
2023-04-18T17:45:07.423Z,50.86
2023-04-18T17:47:34.697Z,51.97
2023-04-18T17:50:01.090Z,51.71
2023-04-18T17:52:28.507Z,52.89
2023-04-18T17:54:56.286Z,53.29
2023-04-18T17:57:23.353Z,51.63
2023-04-18T17:59:49.697Z,51.64
2023-04-18T18:02:16.474Z,51.57
2023-04-18T18:04:43.182Z,51.80
2023-04-18T18:07:09.822Z,52.67
2023-04-18T18:09:36.378Z,52.82
2023-04-18T18:12:03.334Z,52.43
2023-04-18T18:14:29.676Z,53.39
2023-04-18T18:16:56.165Z,53.03
2023-04-18T18:19:22.603Z,52.82
2023-04-18T18:21:48.957Z,53.82
2023-04-18T18:24:15.294Z,54.87
2023-04-18T18:26:41.769Z,54.59
2023-04-18T18:29:11.428Z,54.11
2023-04-18T18:31:38.652Z,54.75
2023-04-18T18:34:05.684Z,54.43
2023-04-18T18:36:32.134Z,54.31
2023-04-18T18:38:58.492Z,53.93
2023-04-18T18:41:24.895Z,54.41
2023-04-18T18:43:51.394Z,54.12
2023-04-18T18:46:18.266Z,54.00
2023-04-18T18:48:44.788Z,54.50
2023-04-18T18:51:11.554Z,54.99
2023-04-18T18:53:40.365Z,55.54
2023-04-18T18:56:08.570Z,55.54
2023-04-18T18:58:35.577Z,55.07
2023-04-18T19:01:03.175Z,55.19
2023-04-18T19:03:29.801Z,55.91
2023-04-18T19:05:56.811Z,56.45
2023-04-18T19:08:23.236Z,56.67
2023-04-18T19:10:50.476Z,56.85
2023-04-18T19:13:18.697Z,56.80
2023-04-18T19:15:45.102Z,57.74
2023-04-18T19:18:12.321Z,58.51
2023-04-18T19:20:40.258Z,59.04
2023-04-18T19:23:06.673Z,58.50
2023-04-18T19:25:33.085Z,58.19
2023-04-18T19:27:59.420Z,58.23
2023-04-18T19:30:25.784Z,58.57
2023-04-18T19:32:52.218Z,59.41
2023-04-18T19:35:18.600Z,60.32
2023-04-18T19:37:44.931Z,60.81
2023-04-18T19:40:11.665Z,60.40
2023-04-18T19:42:38.011Z,60.86
2023-04-18T19:45:05.803Z,60.79
2023-04-18T19:47:33.816Z,60.70
2023-04-18T19:50:01.149Z,61.04
2023-04-18T19:52:27.571Z,61.28
2023-04-18T19:54:54.558Z,61.41
2023-04-18T19:57:20.886Z,61.43
2023-04-18T19:59:47.213Z,61.55
2023-04-18T20:02:13.580Z,61.24
2023-04-18T20:04:41.731Z,61.52
2023-04-18T20:07:08.192Z,61.09
2023-04-18T20:09:34.566Z,61.42
2023-04-18T20:12:01.896Z,61.80
2023-04-18T20:14:28.838Z,61.49
2023-04-18T20:16:56.147Z,62.29
2023-04-18T20:19:24.436Z,62.55
2023-04-18T20:21:51.121Z,62.96
2023-04-18T20:24:17.860Z,62.21
2023-04-18T20:26:44.227Z,62.18
2023-04-18T20:29:11.121Z,62.01
2023-04-18T20:31:41.968Z,61.91
2023-04-18T20:34:09.567Z,61.13
2023-04-18T20:36:41.260Z,60.78
2023-04-18T20:39:12.900Z,61.07
2023-04-18T20:41:49.082Z,61.07
2023-04-18T20:44:16.296Z,60.78
2023-04-18T20:46:42.636Z,61.07
2023-04-18T20:49:09.215Z,61.21
2023-04-18T20:51:36.968Z,61.40
2023-04-18T20:54:04.494Z,60.75
2023-04-18T20:56:31.870Z,61.29
2023-04-18T20:58:58.185Z,61.79
2023-04-18T21:01:24.585Z,61.06
2023-04-18T21:03:51.109Z,61.66
2023-04-18T21:06:19.028Z,61.23
2023-04-18T21:08:45.691Z,61.67
2023-04-18T21:11:12.062Z,61.79
2023-04-18T21:13:38.406Z,61.34
2023-04-18T21:16:07.585Z,62.00
2023-04-18T21:18:34.063Z,61.11
2023-04-18T21:21:00.809Z,60.86
2023-04-18T21:23:27.296Z,60.75
2023-04-18T21:25:53.745Z,61.50
2023-04-18T21:28:20.346Z,60.81
2023-04-18T21:30:46.858Z,60.96
2023-04-18T21:33:13.829Z,61.40
2023-04-18T21:35:40.216Z,60.77
2023-04-18T21:38:06.566Z,60.78
2023-04-18T21:40:33.293Z,60.82
2023-04-18T21:42:59.683Z,61.02
2023-04-18T21:45:26.225Z,62.15
2023-04-18T21:47:52.778Z,62.36
2023-04-18T21:50:19.341Z,62.73
2023-04-18T21:52:45.691Z,63.09
2023-04-18T21:55:12.044Z,63.64
2023-04-18T21:57:38.404Z,63.00
2023-04-18T22:00:07.819Z,62.96
2023-04-18T22:02:36.401Z,63.32
2023-04-18T22:05:02.936Z,64.32
2023-04-18T22:07:29.463Z,64.21
2023-04-18T22:09:58.380Z,63.58
2023-04-18T22:12:26.193Z,64.08
2023-04-18T22:14:52.973Z,63.65
2023-04-18T22:17:20.782Z,63.46
2023-04-18T22:19:49.668Z,63.73
2023-04-18T22:22:16.302Z,63.17
2023-04-18T22:24:42.836Z,63.18
2023-04-18T22:27:09.940Z,62.70
2023-04-18T22:29:36.428Z,63.45
2023-04-18T22:32:02.838Z,63.73
2023-04-18T22:34:29.153Z,63.42
2023-04-18T22:36:55.872Z,63.74
2023-04-18T22:39:22.284Z,63.70
2023-04-18T22:41:48.627Z,64.79
2023-04-18T22:44:15.277Z,65.32
2023-04-18T22:46:42.554Z,64.69
2023-04-18T22:49:08.954Z,64.58
2023-04-18T22:51:35.337Z,64.49
2023-04-18T22:54:01.652Z,63.99
2023-04-18T22:56:27.968Z,64.84
2023-04-18T22:58:54.311Z,65.41
2023-04-18T23:01:20.928Z,65.85
2023-04-18T23:03:47.434Z,65.17
2023-04-18T23:06:13.967Z,64.78
2023-04-18T23:08:40.338Z,65.47
2023-04-18T23:11:06.682Z,65.96
2023-04-18T23:13:33.036Z,65.62
2023-04-18T23:15:59.359Z,66.32
2023-04-18T23:18:29.690Z,66.76
2023-04-18T23:20:56.058Z,65.84
2023-04-18T23:23:22.539Z,66.91
2023-04-18T23:25:48.889Z,66.80
2023-04-18T23:28:16.866Z,67.14
2023-04-18T23:30:43.698Z,67.71
2023-04-18T23:33:10.101Z,66.37
2023-04-18T23:35:36.516Z,66.11
2023-04-18T23:38:02.837Z,65.76
2023-04-18T23:40:29.243Z,65.20
2023-04-18T23:42:55.560Z,65.15
2023-04-18T23:45:24.182Z,65.23
2023-04-18T23:47:50.725Z,64.79
2023-04-18T23:50:17.391Z,65.43
2023-04-18T23:52:43.709Z,65.89
2023-04-18T23:55:10.253Z,66.61
2023-04-18T23:57:36.653Z,66.91
